createdAt,value
2022-08-27T00:00:58.063Z,100.00
2022-08-27T00:02:01.095Z,100.00
2022-08-27T00:03:03.521Z,100.00
2022-08-27T00:04:05.777Z,100.00
2022-08-27T00:05:08.786Z,100.00
2022-08-27T00:06:15.518Z,100.00
2022-08-27T00:07:19.678Z,100.00
2022-08-27T00:08:22.001Z,100.00
2022-08-27T00:09:26.972Z,100.00
2022-08-27T00:10:29.635Z,100.00
2022-08-27T00:11:31.886Z,100.00
2022-08-27T00:12:35.341Z,100.00
2022-08-27T00:13:38.735Z,100.00
2022-08-27T00:14:41.473Z,100.00
2022-08-27T00:15:44.348Z,100.00
2022-08-27T00:16:46.653Z,100.00
2022-08-27T00:17:48.943Z,100.00
2022-08-27T00:18:51.202Z,100.00
2022-08-27T00:19:53.391Z,100.00
2022-08-27T00:20:55.593Z,100.00
2022-08-27T00:21:58.065Z,100.00
2022-08-27T00:23:00.891Z,100.00
2022-08-27T00:24:03.335Z,100.00
2022-08-27T00:25:05.824Z,100.00
2022-08-27T00:26:08.570Z,100.00
2022-08-27T00:27:12.382Z,100.00
2022-08-27T00:28:15.284Z,100.00
2022-08-27T00:29:17.813Z,100.00
2022-08-27T00:30:22.623Z,100.00
2022-08-27T00:31:27.513Z,100.00
2022-08-27T00:32:29.945Z,100.00
2022-08-27T00:33:32.260Z,100.00
2022-08-27T00:34:34.724Z,100.00
2022-08-27T00:35:37.686Z,100.00
2022-08-27T00:36:40.510Z,100.00
2022-08-27T00:37:43.601Z,100.00
2022-08-27T00:38:45.847Z,100.00
2022-08-27T00:39:48.228Z,100.00
2022-08-27T00:40:51.420Z,100.00
2022-08-27T00:41:53.688Z,100.00
2022-08-27T00:42:55.941Z,100.00
2022-08-27T00:44:00.227Z,100.00
2022-08-27T00:45:02.553Z,100.00
2022-08-27T00:46:14.385Z,100.00
2022-08-27T00:47:22.987Z,100.00
2022-08-27T00:48:29.999Z,100.00
2022-08-27T00:49:41.697Z,100.00
2022-08-27T00:50:49.668Z,100.00
2022-08-27T00:52:17.318Z,100.00
2022-08-27T00:53:23.551Z,100.00
2022-08-27T00:54:28.110Z,100.00
2022-08-27T00:55:35.932Z,100.00
2022-08-27T00:56:44.442Z,100.00
2022-08-27T00:58:07.467Z,100.00
2022-08-27T00:59:12.669Z,100.00
2022-08-27T01:00:16.997Z,100.00
2022-08-27T01:01:22.924Z,100.00
2022-08-27T01:02:29.504Z,100.00
2022-08-27T01:03:32.875Z,100.00
2022-08-27T01:04:38.363Z,100.00
2022-08-27T01:05:42.290Z,100.00
2022-08-27T01:06:44.520Z,100.00
2022-08-27T01:07:50.274Z,100.00
2022-08-27T01:08:59.101Z,100.00
2022-08-27T01:10:02.793Z,100.00
2022-08-27T01:11:05.763Z,100.00
2022-08-27T01:12:08.581Z,100.00
2022-08-27T01:13:14.643Z,100.00
2022-08-27T01:14:19.261Z,100.00
2022-08-27T01:15:24.427Z,100.00
2022-08-27T01:16:32.732Z,100.00
2022-08-27T01:17:38.606Z,100.00
2022-08-27T01:18:40.861Z,100.00
2022-08-27T01:19:51.446Z,100.00
2022-08-27T01:21:26.949Z,100.00
2022-08-27T01:22:37.902Z,100.00
2022-08-27T01:23:58.068Z,100.00
2022-08-27T01:25:06.076Z,100.00
2022-08-27T01:26:10.151Z,100.00
2022-08-27T01:27:18.826Z,100.00
2022-08-27T01:28:23.678Z,100.00
2022-08-27T01:29:31.820Z,100.00
2022-08-27T01:30:34.082Z,100.00
2022-08-27T01:31:36.384Z,100.00
2022-08-27T01:32:39.934Z,100.00
2022-08-27T01:33:54.841Z,100.00
2022-08-27T01:34:58.840Z,100.00
2022-08-27T01:36:01.177Z,100.00
2022-08-27T01:37:05.935Z,100.00
2022-08-27T01:38:11.664Z,100.00
2022-08-27T01:39:23.856Z,100.00
2022-08-27T01:40:26.159Z,100.00
2022-08-27T01:41:28.434Z,100.00
2022-08-27T01:42:38.853Z,100.00
2022-08-27T01:43:41.026Z,100.00
2022-08-27T01:44:53.014Z,100.00
2022-08-27T01:45:55.269Z,100.00
2022-08-27T01:46:58.120Z,100.00
2022-08-27T01:48:01.405Z,100.00
2022-08-27T01:49:03.871Z,100.00
2022-08-27T01:50:09.611Z,100.00
2022-08-27T01:51:12.130Z,100.00
2022-08-27T01:52:17.352Z,100.00
2022-08-27T01:53:23.226Z,100.00
2022-08-27T01:54:25.459Z,100.00
2022-08-27T01:55:28.026Z,100.00
2022-08-27T01:56:30.271Z,100.00
2022-08-27T01:57:32.979Z,100.00
2022-08-27T01:58:35.377Z,100.00
2022-08-27T01:59:39.799Z,100.00
2022-08-27T02:00:45.169Z,100.00
2022-08-27T02:01:47.588Z,100.00
2022-08-27T02:02:50.143Z,100.00
2022-08-27T02:03:52.401Z,100.00
2022-08-27T02:04:54.741Z,100.00
2022-08-27T02:05:57.102Z,100.00
2022-08-27T02:07:00.221Z,100.00
2022-08-27T02:08:02.577Z,100.00
2022-08-27T02:09:05.924Z,100.00
2022-08-27T02:10:10.474Z,100.00
2022-08-27T02:11:12.844Z,100.00
2022-08-27T02:12:15.106Z,100.00
2022-08-27T02:13:18.096Z,100.00
2022-08-27T02:14:20.905Z,100.00
2022-08-27T02:15:24.696Z,100.00
2022-08-27T02:16:27.029Z,100.00
2022-08-27T02:17:29.286Z,100.00
2022-08-27T02:18:31.562Z,100.00
2022-08-27T02:19:33.760Z,100.00
2022-08-27T02:20:36.500Z,100.00
2022-08-27T02:21:38.836Z,100.00
2022-08-27T02:22:41.965Z,100.00
2022-08-27T02:23:45.442Z,100.00
2022-08-27T02:24:48.344Z,100.00
2022-08-27T02:25:51.228Z,100.00
2022-08-27T02:26:58.395Z,100.00
2022-08-27T02:28:01.177Z,100.00
2022-08-27T02:29:04.209Z,100.00
2022-08-27T02:30:07.820Z,100.00
2022-08-27T02:31:10.478Z,100.00
2022-08-27T02:32:23.884Z,100.00
2022-08-27T02:33:34.870Z,100.00
2022-08-27T02:34:38.169Z,100.00
2022-08-27T02:35:43.841Z,100.00
2022-08-27T02:36:47.559Z,100.00
2022-08-27T02:37:50.199Z,100.00
2022-08-27T02:38:52.478Z,100.00
2022-08-27T02:39:54.769Z,100.00
2022-08-27T02:40:57.039Z,100.00
2022-08-27T02:41:59.476Z,100.00
2022-08-27T02:43:01.797Z,100.00
2022-08-27T02:44:05.616Z,100.00
2022-08-27T02:45:14.400Z,100.00
2022-08-27T02:46:16.979Z,100.00
2022-08-27T02:47:19.380Z,100.00
2022-08-27T02:48:21.765Z,100.00
2022-08-27T02:49:24.561Z,100.00
2022-08-27T02:50:27.660Z,100.00
2022-08-27T02:51:30.361Z,100.00
2022-08-27T02:52:33.041Z,100.00
2022-08-27T02:53:37.805Z,100.00
2022-08-27T02:54:40.614Z,100.00
2022-08-27T02:55:42.879Z,100.00
2022-08-27T02:56:45.101Z,100.00
2022-08-27T02:57:47.329Z,100.00
2022-08-27T02:58:49.911Z,100.00
2022-08-27T02:59:53.176Z,100.00
2022-08-27T03:00:56.885Z,100.00
2022-08-27T03:01:59.558Z,100.00
2022-08-27T03:03:02.256Z,100.00
2022-08-27T03:04:04.601Z,100.00
2022-08-27T03:05:08.153Z,100.00
2022-08-27T03:06:10.417Z,100.00
2022-08-27T03:07:14.232Z,100.00
2022-08-27T03:08:21.398Z,100.00
2022-08-27T03:09:23.733Z,100.00
2022-08-27T03:10:25.979Z,100.00
2022-08-27T03:11:28.252Z,100.00
2022-08-27T03:12:30.536Z,100.00
2022-08-27T03:13:36.736Z,100.00
2022-08-27T03:14:38.981Z,100.00
2022-08-27T03:15:41.273Z,100.00
2022-08-27T03:16:43.486Z,100.00
2022-08-27T03:18:05.272Z,100.00
2022-08-27T03:19:07.961Z,100.00
2022-08-27T03:20:12.432Z,100.00
2022-08-27T03:21:24.153Z,100.00
2022-08-27T03:22:27.024Z,100.00
2022-08-27T03:23:35.173Z,100.00
2022-08-27T03:24:37.388Z,100.00
2022-08-27T03:25:51.380Z,100.00
2022-08-27T03:26:54.216Z,100.00
2022-08-27T03:27:56.449Z,100.00
2022-08-27T03:28:59.555Z,100.00
2022-08-27T03:30:05.102Z,100.00
2022-08-27T03:31:13.750Z,100.00
2022-08-27T03:32:16.045Z,100.00
2022-08-27T03:33:19.902Z,100.00
2022-08-27T03:34:22.727Z,100.00
2022-08-27T03:35:25.164Z,100.00
2022-08-27T03:36:29.929Z,100.00
2022-08-27T03:37:32.145Z,100.00
2022-08-27T03:38:35.848Z,100.00
2022-08-27T03:39:38.111Z,100.00
2022-08-27T03:40:40.664Z,100.00
2022-08-27T03:41:54.093Z,100.00
2022-08-27T03:42:58.396Z,100.00
2022-08-27T03:44:01.677Z,100.00
2022-08-27T03:45:04.559Z,100.00
2022-08-27T03:46:10.361Z,100.00
2022-08-27T03:47:12.693Z,100.00
2022-08-27T03:48:14.985Z,100.00
2022-08-27T03:49:20.505Z,100.00
2022-08-27T03:50:23.924Z,100.00
2022-08-27T03:51:26.128Z,100.00
2022-08-27T03:52:29.322Z,100.00
2022-08-27T03:53:31.547Z,100.00
2022-08-27T03:54:38.041Z,100.00
2022-08-27T03:55:42.580Z,100.00
2022-08-27T03:56:45.033Z,100.00
2022-08-27T03:57:47.272Z,100.00
2022-08-27T03:58:49.661Z,100.00
2022-08-27T03:59:54.298Z,100.00
2022-08-27T04:00:56.714Z,100.00
2022-08-27T04:01:59.417Z,100.00
2022-08-27T04:03:02.217Z,100.00
2022-08-27T04:04:04.539Z,100.00
2022-08-27T04:05:07.727Z,100.00
2022-08-27T04:06:10.056Z,100.00
2022-08-27T04:07:12.263Z,100.00
2022-08-27T04:08:14.482Z,100.00
2022-08-27T04:09:17.586Z,100.00
2022-08-27T04:10:20.293Z,100.00
2022-08-27T04:11:22.597Z,100.00
2022-08-27T04:12:26.614Z,100.00
2022-08-27T04:13:28.833Z,100.00
2022-08-27T04:14:31.042Z,100.00
2022-08-27T04:15:33.406Z,100.00
2022-08-27T04:16:36.682Z,100.00
2022-08-27T04:17:39.970Z,100.00
2022-08-27T04:18:42.292Z,100.00
2022-08-27T04:19:44.537Z,100.00
2022-08-27T04:20:48.272Z,100.00
2022-08-27T04:21:51.000Z,100.00
2022-08-27T04:22:53.249Z,100.00
2022-08-27T04:23:58.722Z,100.00
2022-08-27T04:25:02.962Z,100.00
2022-08-27T04:26:09.586Z,100.00
2022-08-27T04:27:11.883Z,100.00
2022-08-27T04:28:15.916Z,100.00
2022-08-27T04:29:18.126Z,100.00
2022-08-27T04:30:20.377Z,100.00
2022-08-27T04:31:22.924Z,100.00
2022-08-27T04:32:27.381Z,100.00
2022-08-27T04:33:34.425Z,100.00
2022-08-27T04:34:37.077Z,100.00
2022-08-27T04:35:39.922Z,100.00
2022-08-27T04:36:42.148Z,100.00
2022-08-27T04:37:44.430Z,100.00
2022-08-27T04:38:47.250Z,100.00
2022-08-27T04:39:50.646Z,100.00
2022-08-27T04:41:11.673Z,100.00
2022-08-27T04:42:13.909Z,100.00
2022-08-27T04:43:17.649Z,100.00
2022-08-27T04:44:20.115Z,100.00
2022-08-27T04:45:22.313Z,100.00
2022-08-27T04:46:29.032Z,100.00
2022-08-27T04:47:31.445Z,100.00
2022-08-27T04:48:33.808Z,100.00
2022-08-27T04:49:36.658Z,100.00
2022-08-27T04:50:43.164Z,100.00
2022-08-27T04:51:45.780Z,100.00
2022-08-27T04:52:48.070Z,100.00
2022-08-27T04:53:52.445Z,100.00
2022-08-27T04:54:55.439Z,100.00
2022-08-27T04:55:57.944Z,100.00
2022-08-27T04:57:02.829Z,100.00
2022-08-27T04:58:05.042Z,100.00
2022-08-27T04:59:10.088Z,100.00
2022-08-27T05:00:12.953Z,100.00
2022-08-27T05:01:17.488Z,100.00
2022-08-27T05:02:19.782Z,100.00
2022-08-27T05:03:24.163Z,100.00
2022-08-27T05:04:26.706Z,100.00
2022-08-27T05:05:29.037Z,100.00
2022-08-27T05:06:31.460Z,100.00
2022-08-27T05:07:33.677Z,100.00
2022-08-27T05:08:35.920Z,100.00
2022-08-27T05:09:38.752Z,100.00
2022-08-27T05:10:43.202Z,100.00
2022-08-27T05:11:47.088Z,100.00
2022-08-27T05:12:50.646Z,100.00
2022-08-27T05:13:52.952Z,100.00
2022-08-27T05:14:55.194Z,100.00
2022-08-27T05:16:03.939Z,100.00
2022-08-27T05:17:06.512Z,100.00
2022-08-27T05:18:09.318Z,100.00
2022-08-27T05:19:14.715Z,100.00
2022-08-27T05:20:17.048Z,100.00
2022-08-27T05:21:22.667Z,100.00
2022-08-27T05:22:25.273Z,100.00
2022-08-27T05:23:30.253Z,100.00
2022-08-27T05:24:32.606Z,100.00
2022-08-27T05:25:39.642Z,100.00
2022-08-27T05:26:41.990Z,100.00
2022-08-27T05:27:44.659Z,100.00
2022-08-27T05:28:46.994Z,100.00
2022-08-27T05:29:49.207Z,100.00
2022-08-27T05:30:55.444Z,100.00
2022-08-27T05:31:58.005Z,100.00
2022-08-27T05:33:00.581Z,100.00
2022-08-27T05:34:03.691Z,100.00
2022-08-27T05:35:15.594Z,100.00
2022-08-27T05:36:21.827Z,100.00
2022-08-27T05:37:24.110Z,100.00
2022-08-27T05:38:29.401Z,100.00
2022-08-27T05:39:31.632Z,100.00
2022-08-27T05:40:34.163Z,100.00
2022-08-27T05:41:36.495Z,100.00
2022-08-27T05:42:38.724Z,100.00
2022-08-27T05:43:45.383Z,100.00
2022-08-27T05:44:50.476Z,100.00
2022-08-27T05:45:52.729Z,100.00
2022-08-27T05:46:55.039Z,100.00
2022-08-27T05:47:58.633Z,100.00
2022-08-27T05:49:01.828Z,100.00
2022-08-27T05:50:04.462Z,100.00
2022-08-27T05:51:16.259Z,100.00
2022-08-27T05:52:27.745Z,100.00
2022-08-27T05:53:30.341Z,100.00
2022-08-27T05:54:32.623Z,100.00
2022-08-27T05:55:45.041Z,100.00
2022-08-27T05:56:49.951Z,100.00
2022-08-27T05:57:52.292Z,100.00
2022-08-27T05:59:13.016Z,100.00
2022-08-27T06:00:34.177Z,100.00
2022-08-27T06:01:39.377Z,100.00
2022-08-27T06:02:41.681Z,100.00
2022-08-27T06:03:44.802Z,100.00
2022-08-27T06:04:47.612Z,100.00
2022-08-27T06:05:49.895Z,100.00
2022-08-27T06:06:52.762Z,100.00
2022-08-27T06:07:55.012Z,100.00
2022-08-27T06:08:57.411Z,100.00
2022-08-27T06:10:00.188Z,100.00
2022-08-27T06:11:05.312Z,100.00
2022-08-27T06:12:08.280Z,100.00
2022-08-27T06:13:10.569Z,100.00
2022-08-27T06:14:12.850Z,100.00
2022-08-27T06:15:15.097Z,100.00
2022-08-27T06:16:19.643Z,100.00
2022-08-27T06:17:22.024Z,100.00
2022-08-27T06:18:24.210Z,100.00
2022-08-27T06:19:26.736Z,100.00
2022-08-27T06:20:28.962Z,100.00
2022-08-27T06:21:31.216Z,100.00
2022-08-27T06:22:33.791Z,100.00
2022-08-27T06:23:36.674Z,100.00
2022-08-27T06:24:41.156Z,100.00
2022-08-27T06:25:43.368Z,100.00
2022-08-27T06:26:45.801Z,100.00
2022-08-27T06:27:48.049Z,100.00
2022-08-27T06:28:50.690Z,100.00
2022-08-27T06:29:52.948Z,100.00
2022-08-27T06:31:11.266Z,100.00
2022-08-27T06:32:14.868Z,100.00
2022-08-27T06:33:17.387Z,100.00
2022-08-27T06:34:19.783Z,100.00
2022-08-27T06:35:21.992Z,100.00
2022-08-27T06:36:25.792Z,100.00
2022-08-27T06:37:31.005Z,100.00
2022-08-27T06:38:34.436Z,100.00
2022-08-27T06:39:38.254Z,100.00
2022-08-27T06:40:42.117Z,100.00
2022-08-27T06:41:44.763Z,100.00
2022-08-27T06:42:47.593Z,100.00
2022-08-27T06:43:51.947Z,100.00
2022-08-27T06:44:54.555Z,98.72
2022-08-27T06:45:56.800Z,98.92
2022-08-27T06:46:59.696Z,97.46
2022-08-27T06:48:01.898Z,95.92
2022-08-27T06:49:04.482Z,93.90
2022-08-27T06:50:07.034Z,91.92
2022-08-27T06:51:19.737Z,90.49
2022-08-27T06:52:21.947Z,89.16
2022-08-27T06:53:24.586Z,89.26
2022-08-27T06:54:26.913Z,87.50
2022-08-27T06:55:29.145Z,86.28
2022-08-27T06:56:31.689Z,84.85
2022-08-27T06:57:33.924Z,85.39
2022-08-27T06:58:36.292Z,82.92
2022-08-27T06:59:39.515Z,82.31
2022-08-27T07:00:48.419Z,82.18
2022-08-27T07:01:51.635Z,83.41
2022-08-27T07:02:54.328Z,84.22
2022-08-27T07:03:58.533Z,84.21
2022-08-27T07:05:00.725Z,84.33
2022-08-27T07:06:06.535Z,83.49
2022-08-27T07:07:13.051Z,83.20
2022-08-27T07:08:15.289Z,80.04
2022-08-27T07:09:20.603Z,80.98
2022-08-27T07:10:23.230Z,81.67
2022-08-27T07:11:26.901Z,80.94
2022-08-27T07:12:30.676Z,80.29
2022-08-27T07:13:33.211Z,80.99
2022-08-27T07:14:38.056Z,80.70
2022-08-27T07:15:41.836Z,78.90
2022-08-27T07:16:45.304Z,77.04
2022-08-27T07:17:50.617Z,75.13
2022-08-27T07:18:56.042Z,73.52
2022-08-27T07:19:58.325Z,72.26
2022-08-27T07:21:01.176Z,72.45
2022-08-27T07:22:03.515Z,72.69
2022-08-27T07:23:09.418Z,72.84
2022-08-27T07:24:13.537Z,73.99
2022-08-27T07:25:20.333Z,75.83
2022-08-27T07:26:23.607Z,75.85
2022-08-27T07:27:25.785Z,74.56
2022-08-27T07:28:28.478Z,75.05
2022-08-27T07:29:32.369Z,74.66
2022-08-27T07:30:34.991Z,75.39
2022-08-27T07:31:38.878Z,75.46
2022-08-27T07:32:41.932Z,75.39
2022-08-27T07:33:51.563Z,77.77
2022-08-27T07:34:55.445Z,77.53
2022-08-27T07:35:57.707Z,76.84
2022-08-27T07:36:59.911Z,78.55
2022-08-27T07:38:02.136Z,78.79
2022-08-27T07:39:05.461Z,78.44
2022-08-27T07:40:12.042Z,79.93
2022-08-27T07:41:16.164Z,78.95
2022-08-27T07:42:36.648Z,77.40
2022-08-27T07:43:57.886Z,76.71
2022-08-27T07:45:00.182Z,76.66
2022-08-27T07:46:05.519Z,75.04
2022-08-27T07:47:08.218Z,74.99
2022-08-27T07:48:10.588Z,75.38
2022-08-27T07:49:12.957Z,76.32
2022-08-27T07:50:15.180Z,75.31
2022-08-27T07:51:20.673Z,75.72
2022-08-27T07:52:26.397Z,75.19
2022-08-27T07:53:29.035Z,75.64
2022-08-27T07:54:31.349Z,74.96
2022-08-27T07:55:36.561Z,75.40
2022-08-27T07:56:38.952Z,74.27
2022-08-27T07:57:42.038Z,73.98
2022-08-27T07:58:44.776Z,74.38
2022-08-27T07:59:48.356Z,73.39
2022-08-27T08:00:50.584Z,71.88
2022-08-27T08:01:53.418Z,71.01
2022-08-27T08:02:55.941Z,69.23
2022-08-27T08:03:58.205Z,69.94
2022-08-27T08:05:00.653Z,68.83
2022-08-27T08:06:09.748Z,70.35
2022-08-27T08:07:12.491Z,70.81
2022-08-27T08:08:15.498Z,69.87
2022-08-27T08:09:17.800Z,70.33
2022-08-27T08:10:22.361Z,70.94
2022-08-27T08:11:24.595Z,69.50
2022-08-27T08:12:27.076Z,68.48
2022-08-27T08:13:30.364Z,67.70
2022-08-27T08:14:32.645Z,67.91
2022-08-27T08:15:35.904Z,68.87
2022-08-27T08:16:38.170Z,68.60
2022-08-27T08:17:40.574Z,68.22
2022-08-27T08:18:43.260Z,66.64
2022-08-27T08:20:02.508Z,66.92
2022-08-27T08:21:11.399Z,66.09
2022-08-27T08:22:14.246Z,65.74
2022-08-27T08:23:16.588Z,65.21
2022-08-27T08:24:18.802Z,64.13
2022-08-27T08:25:21.892Z,64.94
2022-08-27T08:26:24.189Z,65.13
2022-08-27T08:27:26.509Z,64.46
2022-08-27T08:28:30.243Z,65.53
2022-08-27T08:29:32.483Z,64.70
2022-08-27T08:30:35.585Z,65.25
2022-08-27T08:31:38.045Z,65.72
2022-08-27T08:32:40.311Z,67.62
2022-08-27T08:33:42.554Z,68.09
2022-08-27T08:34:44.781Z,67.54
2022-08-27T08:35:49.024Z,69.10
2022-08-27T08:36:54.880Z,68.94
2022-08-27T08:37:57.517Z,69.01
2022-08-27T08:38:59.856Z,67.77
2022-08-27T08:40:02.955Z,68.59
2022-08-27T08:41:07.074Z,69.57
2022-08-27T08:42:38.652Z,68.74
2022-08-27T08:43:51.846Z,69.15
2022-08-27T08:44:56.810Z,69.02
2022-08-27T08:46:17.368Z,68.60
2022-08-27T08:47:30.217Z,69.51
2022-08-27T08:48:32.549Z,69.02
2022-08-27T08:49:44.573Z,68.00
2022-08-27T08:51:19.165Z,67.70
2022-08-27T08:52:40.482Z,67.65
2022-08-27T08:53:57.554Z,68.89
2022-08-27T08:55:21.897Z,68.40
2022-08-27T08:56:54.832Z,69.21
2022-08-27T08:58:13.306Z,69.67
2022-08-27T08:59:29.897Z,70.08
2022-08-27T09:00:32.763Z,69.48
2022-08-27T09:01:35.385Z,69.79
2022-08-27T09:02:38.004Z,68.87
2022-08-27T09:03:44.388Z,68.49
2022-08-27T09:04:46.631Z,67.44
2022-08-27T09:06:02.521Z,67.12
2022-08-27T09:07:12.975Z,68.31
2022-08-27T09:08:41.573Z,67.41
2022-08-27T09:09:57.629Z,67.12
2022-08-27T09:11:25.717Z,66.35
2022-08-27T09:12:32.475Z,67.17
2022-08-27T09:13:42.491Z,66.21
2022-08-27T09:15:18.818Z,64.59
2022-08-27T09:16:21.220Z,65.90
2022-08-27T09:17:23.864Z,65.23
2022-08-27T09:18:28.223Z,65.66
2022-08-27T09:19:30.653Z,65.19
2022-08-27T09:20:36.517Z,63.86
2022-08-27T09:21:49.507Z,65.02
2022-08-27T09:23:04.996Z,65.78
2022-08-27T09:24:27.334Z,64.61
2022-08-27T09:25:34.460Z,66.42
2022-08-27T09:26:40.988Z,66.40
2022-08-27T09:27:43.696Z,65.60
2022-08-27T09:29:04.599Z,67.27
2022-08-27T09:30:09.352Z,66.63
2022-08-27T09:31:20.722Z,67.87
2022-08-27T09:32:25.896Z,67.53
2022-08-27T09:33:28.205Z,68.83
2022-08-27T09:34:46.971Z,66.84
2022-08-27T09:35:51.166Z,66.46
2022-08-27T09:37:06.249Z,64.62
2022-08-27T09:38:09.853Z,64.66
2022-08-27T09:39:13.714Z,64.21
2022-08-27T09:40:28.121Z,64.04
2022-08-27T09:41:36.306Z,63.32
2022-08-27T09:42:43.811Z,62.62
2022-08-27T09:44:23.105Z,61.45
2022-08-27T09:45:29.402Z,61.79
2022-08-27T09:46:31.657Z,61.04
2022-08-27T09:47:49.789Z,61.74
2022-08-27T09:48:52.670Z,62.56
2022-08-27T09:50:07.785Z,62.96
2022-08-27T09:51:14.431Z,64.83
2022-08-27T09:52:39.229Z,63.86
2022-08-27T09:53:53.178Z,65.84
2022-08-27T09:54:56.608Z,64.91
2022-08-27T09:56:07.766Z,65.09
2022-08-27T09:57:13.991Z,65.57
2022-08-27T09:58:29.690Z,64.86
2022-08-27T09:59:36.977Z,65.19
2022-08-27T10:00:41.157Z,66.38
2022-08-27T10:01:53.931Z,65.80
2022-08-27T10:03:02.957Z,66.37
2022-08-27T10:04:12.625Z,65.35
2022-08-27T10:05:29.285Z,65.65
2022-08-27T10:06:32.926Z,63.94
2022-08-27T10:07:47.195Z,63.21
2022-08-27T10:08:54.715Z,64.90
2022-08-27T10:10:03.854Z,65.20
2022-08-27T10:11:18.477Z,62.76
2022-08-27T10:12:58.577Z,61.24
2022-08-27T10:14:13.437Z,60.97
2022-08-27T10:15:16.078Z,60.90
2022-08-27T10:16:47.424Z,59.93
2022-08-27T10:17:52.533Z,60.60
2022-08-27T10:19:14.702Z,59.22
2022-08-27T10:20:40.942Z,56.96
2022-08-27T10:21:47.084Z,57.32
2022-08-27T10:23:13.695Z,57.56
2022-08-27T10:24:37.456Z,58.24
2022-08-27T10:25:48.421Z,58.28
2022-08-27T10:27:14.098Z,58.62
2022-08-27T10:28:41.125Z,59.00
2022-08-27T10:30:07.574Z,58.21
2022-08-27T10:31:25.358Z,57.90
2022-08-27T10:32:52.162Z,57.93
2022-08-27T10:34:14.302Z,57.70
2022-08-27T10:35:54.632Z,56.16
2022-08-27T10:37:15.416Z,55.75
2022-08-27T10:38:30.189Z,55.13
2022-08-27T10:39:51.256Z,52.57
2022-08-27T10:41:33.652Z,50.93
2022-08-27T10:42:46.173Z,49.32
2022-08-27T10:44:06.530Z,49.68
2022-08-27T10:45:35.418Z,49.60
2022-08-27T10:46:56.635Z,48.86
2022-08-27T10:48:09.237Z,48.42
2022-08-27T10:49:33.130Z,48.13
2022-08-27T10:50:55.232Z,48.09
2022-08-27T10:52:16.850Z,49.41
2022-08-27T10:53:21.709Z,49.70
2022-08-27T10:54:38.661Z,49.32
2022-08-27T10:55:45.913Z,49.13
2022-08-27T10:57:14.385Z,49.41
2022-08-27T10:58:24.835Z,47.18
2022-08-27T10:59:53.800Z,47.63
2022-08-27T11:01:17.996Z,47.28
2022-08-27T11:02:44.788Z,46.67
2022-08-27T11:04:03.239Z,47.16
2022-08-27T11:05:19.533Z,46.84
2022-08-27T11:06:39.467Z,46.98
2022-08-27T11:07:47.548Z,46.51
2022-08-27T11:08:57.118Z,46.90
2022-08-27T11:10:04.606Z,46.94
2022-08-27T11:11:51.757Z,48.23
2022-08-27T11:12:39.977Z,49.51
2022-08-27T11:13:51.616Z,46.31
2022-08-27T11:15:08.849Z,45.23
2022-08-27T11:16:23.248Z,44.63
2022-08-27T11:17:34.294Z,42.92
2022-08-27T11:18:58.301Z,42.42
2022-08-27T11:20:08.569Z,42.77
2022-08-27T11:21:36.639Z,41.69
2022-08-27T11:22:49.096Z,41.65
2022-08-27T11:24:22.411Z,40.27
2022-08-27T11:25:38.673Z,39.43
2022-08-27T11:26:42.404Z,39.63
2022-08-27T11:27:47.885Z,38.78
2022-08-27T11:29:02.199Z,38.59
2022-08-27T11:30:04.739Z,37.54
2022-08-27T11:31:16.100Z,37.13
2022-08-27T11:32:50.012Z,38.49
2022-08-27T11:34:08.017Z,39.61
2022-08-27T11:35:19.080Z,39.77
2022-08-27T11:36:54.655Z,39.33
2022-08-27T11:38:12.082Z,39.75
2022-08-27T11:39:17.417Z,39.86
2022-08-27T11:40:42.227Z,39.74
2022-08-27T11:41:50.265Z,38.88
2022-08-27T11:42:58.417Z,38.00
2022-08-27T11:44:01.139Z,38.85
2022-08-27T11:45:29.736Z,41.50
2022-08-27T11:46:46.934Z,43.18
2022-08-27T11:47:54.412Z,41.89
2022-08-27T11:49:00.006Z,41.87
2022-08-27T11:50:08.889Z,41.51
2022-08-27T11:51:18.589Z,42.55
2022-08-27T11:52:30.034Z,41.44
2022-08-27T11:53:51.893Z,39.77
2022-08-27T11:55:24.077Z,38.01
2022-08-27T11:56:39.726Z,36.47
2022-08-27T11:57:42.893Z,35.54
2022-08-27T11:58:52.779Z,35.40
2022-08-27T11:59:55.965Z,35.22
2022-08-27T12:01:00.984Z,36.04
2022-08-27T12:02:23.003Z,35.37
2022-08-27T12:03:30.292Z,34.59
2022-08-27T12:04:39.186Z,33.45
2022-08-27T12:05:45.644Z,33.03
2022-08-27T12:07:00.231Z,32.60
2022-08-27T12:08:21.910Z,32.82
2022-08-27T12:09:24.797Z,34.53
2022-08-27T12:10:42.496Z,35.04
2022-08-27T12:12:00.816Z,33.89
2022-08-27T12:13:21.301Z,33.34
2022-08-27T12:14:43.478Z,32.75
2022-08-27T12:15:49.807Z,30.98
2022-08-27T12:17:28.307Z,31.28
2022-08-27T12:18:48.536Z,31.10
2022-08-27T12:20:41.752Z,31.03
2022-08-27T12:21:43.905Z,32.49
2022-08-27T12:23:04.495Z,33.14
2022-08-27T12:24:06.576Z,31.40
2022-08-27T12:25:20.991Z,32.16
2022-08-27T12:26:26.317Z,31.00
2022-08-27T12:27:36.986Z,30.70
2022-08-27T12:28:39.204Z,30.70
2022-08-27T12:30:00.321Z,31.18
2022-08-27T12:31:06.573Z,32.35
2022-08-27T12:32:37.823Z,32.22
2022-08-27T12:33:44.134Z,32.66
2022-08-27T12:35:13.980Z,32.37
2022-08-27T12:36:27.966Z,32.51
2022-08-27T12:37:36.278Z,33.57
2022-08-27T12:38:50.470Z,33.98
2022-08-27T12:39:57.646Z,32.91
2022-08-27T12:41:04.100Z,33.71
2022-08-27T12:42:15.590Z,31.66
2022-08-27T12:43:24.863Z,30.94
2022-08-27T12:44:30.089Z,30.43
2022-08-27T12:45:32.291Z,30.50
2022-08-27T12:46:49.660Z,30.08
2022-08-27T12:47:55.342Z,31.06
2022-08-27T12:49:35.894Z,29.22
2022-08-27T12:50:30.443Z,30.40
2022-08-27T12:51:37.961Z,30.17
2022-08-27T12:53:26.274Z,30.84
2022-08-27T12:54:44.019Z,30.25
2022-08-27T12:55:57.980Z,30.82
2022-08-27T12:57:18.261Z,31.96
2022-08-27T12:58:34.126Z,30.76
2022-08-27T12:59:42.351Z,30.40
2022-08-27T13:00:56.643Z,30.72
2022-08-27T13:02:07.411Z,30.82
2022-08-27T13:03:18.745Z,32.40
2022-08-27T13:04:24.830Z,31.43
2022-08-27T13:05:27.505Z,31.76
2022-08-27T13:06:44.172Z,30.36
2022-08-27T13:07:49.116Z,29.51
2022-08-27T13:08:56.919Z,29.37
2022-08-27T13:10:14.989Z,29.40
2022-08-27T13:11:22.278Z,29.14
2022-08-27T13:12:25.715Z,30.07
2022-08-27T13:13:27.982Z,29.44
2022-08-27T13:14:39.513Z,28.69
2022-08-27T13:15:48.482Z,29.84
2022-08-27T13:17:02.771Z,30.01
2022-08-27T13:18:07.407Z,31.04
2022-08-27T13:19:24.201Z,31.08
2022-08-27T13:20:26.813Z,32.30
2022-08-27T13:21:30.602Z,31.20
2022-08-27T13:22:39.727Z,31.22
2022-08-27T13:23:57.717Z,31.21
2022-08-27T13:25:00.046Z,31.68
2022-08-27T13:26:10.727Z,32.30
2022-08-27T13:27:13.670Z,32.47
2022-08-27T13:28:20.180Z,32.48
2022-08-27T13:29:22.600Z,33.78
2022-08-27T13:30:35.748Z,34.32
2022-08-27T13:31:38.797Z,34.40
2022-08-27T13:32:41.589Z,35.14
2022-08-27T13:33:44.862Z,34.61
2022-08-27T13:34:47.938Z,34.79
2022-08-27T13:35:51.268Z,35.98
2022-08-27T13:36:59.419Z,36.29
2022-08-27T13:38:03.548Z,36.54
2022-08-27T13:39:07.312Z,36.25
2022-08-27T13:40:10.480Z,35.05
2022-08-27T13:41:30.108Z,35.04
2022-08-27T13:42:32.551Z,33.90
2022-08-27T13:43:39.178Z,34.40
2022-08-27T13:44:41.452Z,32.85
2022-08-27T13:45:52.493Z,33.12
2022-08-27T13:47:01.937Z,33.57
2022-08-27T13:48:06.166Z,32.56
2022-08-27T13:49:17.689Z,34.37
2022-08-27T13:50:26.476Z,33.92
2022-08-27T13:51:34.423Z,34.00
2022-08-27T13:53:01.750Z,33.80
2022-08-27T13:54:13.386Z,34.59
2022-08-27T13:55:18.195Z,33.94
2022-08-27T13:56:35.782Z,34.83
2022-08-27T13:57:56.736Z,34.30
2022-08-27T13:59:24.172Z,35.17
2022-08-27T14:00:33.717Z,35.58
2022-08-27T14:01:36.306Z,35.95
2022-08-27T14:02:38.620Z,35.46
2022-08-27T14:03:50.654Z,36.74
2022-08-27T14:05:15.452Z,35.61
2022-08-27T14:06:35.775Z,35.63
2022-08-27T14:07:52.690Z,35.72
2022-08-27T14:08:55.496Z,35.57
2022-08-27T14:10:04.699Z,35.38
2022-08-27T14:11:09.671Z,33.88
2022-08-27T14:12:23.752Z,34.10
2022-08-27T14:13:45.151Z,34.51
2022-08-27T14:14:54.374Z,34.75
2022-08-27T14:15:59.362Z,36.45
2022-08-27T14:17:03.348Z,36.32